sensor_id;sensor_type;location;lat;lon;timestamp;P1;durP1;ratioP1;P2;durP2;ratioP2
3911;SDS011;1971;51.778;10.330;2023-01-31T00:00:17;3.70;;;1.93;;
3911;SDS011;1971;51.778;10.330;2023-01-31T00:02:47;8.97;;;1.73;;
3911;SDS011;1971;51.778;10.330;2023-01-31T00:05:17;7.17;;;2.10;;
3911;SDS011;1971;51.778;10.330;2023-01-31T00:07:50;5.30;;;1.77;;
3911;SDS011;1971;51.778;10.330;2023-01-31T00:10:21;5.40;;;1.70;;
3911;SDS011;1971;51.778;10.330;2023-01-31T00:12:50;7.23;;;2.33;;
3911;SDS011;1971;51.778;10.330;2023-01-31T00:15:20;6.30;;;2.37;;
3911;SDS011;1971;51.778;10.330;2023-01-31T00:17:51;6.77;;;2.50;;
3911;SDS011;1971;51.778;10.330;2023-01-31T00:20:20;9.00;;;2.80;;
3911;SDS011;1971;51.778;10.330;2023-01-31T00:22:53;4.73;;;1.67;;
3911;SDS011;1971;51.778;10.330;2023-01-31T00:25:23;6.83;;;2.97;;
3911;SDS011;1971;51.778;10.330;2023-01-31T00:27:53;5.00;;;2.73;;
3911;SDS011;1971;51.778;10.330;2023-01-31T00:30:23;11.23;;;4.20;;
3911;SDS011;1971;51.778;10.330;2023-01-31T00:32:53;7.00;;;2.23;;
3911;SDS011;1971;51.778;10.330;2023-01-31T00:35:23;6.53;;;2.90;;
3911;SDS011;1971;51.778;10.330;2023-01-31T00:37:56;6.00;;;2.10;;
3911;SDS011;1971;51.778;10.330;2023-01-31T00:40:26;7.57;;;2.07;;
3911;SDS011;1971;51.778;10.330;2023-01-31T00:42:56;11.50;;;2.20;;
3911;SDS011;1971;51.778;10.330;2023-01-31T00:45:26;5.90;;;2.00;;
3911;SDS011;1971;51.778;10.330;2023-01-31T00:47:56;10.60;;;3.13;;
3911;SDS011;1971;51.778;10.330;2023-01-31T00:50:26;11.77;;;2.90;;
3911;SDS011;1971;51.778;10.330;2023-01-31T00:53:00;8.10;;;2.70;;
3911;SDS011;1971;51.778;10.330;2023-01-31T00:55:31;8.23;;;2.30;;
3911;SDS011;1971;51.778;10.330;2023-01-31T00:58:02;3.60;;;1.90;;
3911;SDS011;1971;51.778;10.330;2023-01-31T01:00:32;11.30;;;2.97;;
3911;SDS011;1971;51.778;10.330;2023-01-31T01:03:03;5.90;;;2.83;;
3911;SDS011;1971;51.778;10.330;2023-01-31T01:05:33;7.57;;;3.60;;
3911;SDS011;1971;51.778;10.330;2023-01-31T01:08:06;6.20;;;2.73;;
3911;SDS011;1971;51.778;10.330;2023-01-31T01:10:37;7.27;;;2.80;;
3911;SDS011;1971;51.778;10.330;2023-01-31T01:13:07;14.93;;;3.90;;
3911;SDS011;1971;51.778;10.330;2023-01-31T01:15:37;5.80;;;1.73;;
3911;SDS011;1971;51.778;10.330;2023-01-31T01:18:07;4.00;;;2.50;;
3911;SDS011;1971;51.778;10.330;2023-01-31T01:20:37;4.60;;;1.97;;
3911;SDS011;1971;51.778;10.330;2023-01-31T01:23:10;9.50;;;2.70;;
3911;SDS011;1971;51.778;10.330;2023-01-31T01:25:41;6.20;;;2.77;;
3911;SDS011;1971;51.778;10.330;2023-01-31T01:28:11;4.43;;;2.30;;
3911;SDS011;1971;51.778;10.330;2023-01-31T01:30:41;3.77;;;1.70;;
3911;SDS011;1971;51.778;10.330;2023-01-31T01:33:11;6.63;;;2.27;;
3911;SDS011;1971;51.778;10.330;2023-01-31T01:35:41;2.20;;;1.93;;
3911;SDS011;1971;51.778;10.330;2023-01-31T01:38:14;5.67;;;2.73;;
3911;SDS011;1971;51.778;10.330;2023-01-31T01:40:44;8.83;;;1.97;;
3911;SDS011;1971;51.778;10.330;2023-01-31T01:43:14;6.53;;;2.10;;
3911;SDS011;1971;51.778;10.330;2023-01-31T01:45:44;3.07;;;1.40;;
3911;SDS011;1971;51.778;10.330;2023-01-31T01:48:15;7.80;;;2.53;;
3911;SDS011;1971;51.778;10.330;2023-01-31T01:50:47;5.37;;;2.07;;
3911;SDS011;1971;51.778;10.330;2023-01-31T01:53:21;6.23;;;1.63;;
3911;SDS011;1971;51.778;10.330;2023-01-31T01:55:57;5.70;;;1.80;;
3911;SDS011;1971;51.778;10.330;2023-01-31T01:58:31;7.67;;;2.10;;
3911;SDS011;1971;51.778;10.330;2023-01-31T02:01:06;5.60;;;2.27;;
3911;SDS011;1971;51.778;10.330;2023-01-31T02:03:39;10.77;;;2.40;;
3911;SDS011;1971;51.778;10.330;2023-01-31T02:06:10;4.33;;;2.07;;
3911;SDS011;1971;51.778;10.330;2023-01-31T02:08:42;7.57;;;2.40;;
3911;SDS011;1971;51.778;10.330;2023-01-31T02:11:14;6.40;;;2.63;;
3911;SDS011;1971;51.778;10.330;2023-01-31T02:13:52;7.40;;;2.17;;
3911;SDS011;1971;51.778;10.330;2023-01-31T02:16:26;7.13;;;2.63;;
3911;SDS011;1971;51.778;10.330;2023-01-31T02:18:56;5.80;;;3.20;;
3911;SDS011;1971;51.778;10.330;2023-01-31T02:24:53;11.23;;;2.57;;
3911;SDS011;1971;51.778;10.330;2023-01-31T02:34:17;2.70;;;1.77;;
3911;SDS011;1971;51.778;10.330;2023-01-31T02:36:57;7.47;;;2.33;;
3911;SDS011;1971;51.778;10.330;2023-01-31T02:39:34;2.10;;;1.70;;
3911;SDS011;1971;51.778;10.330;2023-01-31T02:42:12;6.57;;;1.37;;
3911;SDS011;1971;51.778;10.330;2023-01-31T02:44:48;4.83;;;1.67;;
3911;SDS011;1971;51.778;10.330;2023-01-31T02:47:30;1.87;;;1.10;;
3911;SDS011;1971;51.778;10.330;2023-01-31T02:50:17;3.63;;;1.10;;
3911;SDS011;1971;51.778;10.330;2023-01-31T02:52:55;0.97;;;0.60;;
3911;SDS011;1971;51.778;10.330;2023-01-31T02:55:31;2.70;;;1.20;;
3911;SDS011;1971;51.778;10.330;2023-01-31T02:58:17;2.20;;;0.80;;
3911;SDS011;1971;51.778;10.330;2023-01-31T03:00:49;6.27;;;1.10;;
3911;SDS011;1971;51.778;10.330;2023-01-31T03:03:25;1.47;;;1.37;;
3911;SDS011;1971;51.778;10.330;2023-01-31T03:06:12;1.67;;;0.70;;
3911;SDS011;1971;51.778;10.330;2023-01-31T03:09:22;1.57;;;1.10;;
3911;SDS011;1971;51.778;10.330;2023-01-31T03:12:08;1.97;;;1.10;;
3911;SDS011;1971;51.778;10.330;2023-01-31T03:15:04;1.10;;;1.00;;
3911;SDS011;1971;51.778;10.330;2023-01-31T03:17:47;1.13;;;0.80;;
3911;SDS011;1971;51.778;10.330;2023-01-31T03:20:26;1.23;;;1.00;;
3911;SDS011;1971;51.778;10.330;2023-01-31T03:23:13;2.30;;;1.33;;
3911;SDS011;1971;51.778;10.330;2023-01-31T03:25:47;7.13;;;1.47;;
3911;SDS011;1971;51.778;10.330;2023-01-31T03:28:19;2.20;;;1.30;;
3911;SDS011;1971;51.778;10.330;2023-01-31T03:31:03;5.30;;;1.70;;
3911;SDS011;1971;51.778;10.330;2023-01-31T03:33:38;7.63;;;2.00;;
3911;SDS011;1971;51.778;10.330;2023-01-31T03:36:15;16.50;;;3.87;;
3911;SDS011;1971;51.778;10.330;2023-01-31T03:39:04;12.57;;;2.80;;
3911;SDS011;1971;51.778;10.330;2023-01-31T03:41:45;10.70;;;3.03;;
3911;SDS011;1971;51.778;10.330;2023-01-31T03:44:23;3.67;;;1.93;;
3911;SDS011;1971;51.778;10.330;2023-01-31T03:47:01;7.03;;;2.90;;
3911;SDS011;1971;51.778;10.330;2023-01-31T03:49:34;4.60;;;2.63;;
3911;SDS011;1971;51.778;10.330;2023-01-31T03:52:08;6.07;;;2.50;;
3911;SDS011;1971;51.778;10.330;2023-01-31T03:54:43;6.60;;;2.30;;
3911;SDS011;1971;51.778;10.330;2023-01-31T03:57:19;5.17;;;2.73;;
3911;SDS011;1971;51.778;10.330;2023-01-31T03:59:53;6.23;;;2.43;;
3911;SDS011;1971;51.778;10.330;2023-01-31T04:02:31;9.50;;;3.10;;
3911;SDS011;1971;51.778;10.330;2023-01-31T04:05:05;9.80;;;3.37;;
3911;SDS011;1971;51.778;10.330;2023-01-31T04:07:41;6.70;;;2.27;;
3911;SDS011;1971;51.778;10.330;2023-01-31T04:10:21;7.80;;;2.50;;
3911;SDS011;1971;51.778;10.330;2023-01-31T04:12:52;8.60;;;2.43;;
3911;SDS011;1971;51.778;10.330;2023-01-31T04:15:22;8.50;;;3.07;;
3911;SDS011;1971;51.778;10.330;2023-01-31T04:17:53;12.73;;;3.60;;
3911;SDS011;1971;51.778;10.330;2023-01-31T04:20:24;8.90;;;3.03;;
3911;SDS011;1971;51.778;10.330;2023-01-31T04:22:53;10.87;;;3.93;;
3911;SDS011;1971;51.778;10.330;2023-01-31T04:25:28;6.83;;;3.17;;
3911;SDS011;1971;51.778;10.330;2023-01-31T04:27:59;11.03;;;3.67;;
3911;SDS011;1971;51.778;10.330;2023-01-31T04:30:29;12.00;;;3.27;;
3911;SDS011;1971;51.778;10.330;2023-01-31T04:33:01;10.37;;;3.10;;
3911;SDS011;1971;51.778;10.330;2023-01-31T04:35:31;12.20;;;3.17;;
3911;SDS011;1971;51.778;10.330;2023-01-31T04:38:02;10.63;;;3.67;;
3911;SDS011;1971;51.778;10.330;2023-01-31T04:40:34;16.03;;;3.97;;
3911;SDS011;1971;51.778;10.330;2023-01-31T04:43:04;7.77;;;3.30;;
3911;SDS011;1971;51.778;10.330;2023-01-31T04:45:35;17.90;;;3.60;;
3911;SDS011;1971;51.778;10.330;2023-01-31T04:48:05;14.17;;;4.80;;
3911;SDS011;1971;51.778;10.330;2023-01-31T04:50:35;9.30;;;2.90;;
3911;SDS011;1971;51.778;10.330;2023-01-31T04:53:05;10.33;;;3.10;;
3911;SDS011;1971;51.778;10.330;2023-01-31T04:55:38;9.80;;;3.50;;
3911;SDS011;1971;51.778;10.330;2023-01-31T04:58:08;12.03;;;3.53;;
3911;SDS011;1971;51.778;10.330;2023-01-31T05:00:38;8.00;;;3.37;;
3911;SDS011;1971;51.778;10.330;2023-01-31T05:03:11;11.10;;;4.30;;
3911;SDS011;1971;51.778;10.330;2023-01-31T05:05:41;5.27;;;3.00;;
3911;SDS011;1971;51.778;10.330;2023-01-31T05:08:11;7.80;;;3.20;;
3911;SDS011;1971;51.778;10.330;2023-01-31T05:10:44;9.73;;;3.80;;
3911;SDS011;1971;51.778;10.330;2023-01-31T05:13:14;10.40;;;3.87;;
3911;SDS011;1971;51.778;10.330;2023-01-31T05:15:46;23.97;;;5.00;;
3911;SDS011;1971;51.778;10.330;2023-01-31T05:18:17;11.47;;;4.07;;
3911;SDS011;1971;51.778;10.330;2023-01-31T05:20:47;10.63;;;4.00;;
3911;SDS011;1971;51.778;10.330;2023-01-31T05:23:18;11.63;;;3.93;;
3911;SDS011;1971;51.778;10.330;2023-01-31T05:25:51;12.37;;;4.00;;
3911;SDS011;1971;51.778;10.330;2023-01-31T05:28:21;16.27;;;3.70;;
3911;SDS011;1971;51.778;10.330;2023-01-31T05:30:52;10.03;;;4.13;;
3911;SDS011;1971;51.778;10.330;2023-01-31T05:33:22;6.50;;;2.83;;
3911;SDS011;1971;51.778;10.330;2023-01-31T05:35:55;12.03;;;4.30;;
3911;SDS011;1971;51.778;10.330;2023-01-31T05:38:25;8.43;;;2.93;;
3911;SDS011;1971;51.778;10.330;2023-01-31T05:40:57;6.80;;;3.13;;
3911;SDS011;1971;51.778;10.330;2023-01-31T05:43:28;7.10;;;3.13;;
3911;SDS011;1971;51.778;10.330;2023-01-31T05:46:01;12.57;;;3.73;;
3911;SDS011;1971;51.778;10.330;2023-01-31T05:48:31;13.93;;;3.60;;
3911;SDS011;1971;51.778;10.330;2023-01-31T05:51:01;9.73;;;3.73;;
3911;SDS011;1971;51.778;10.330;2023-01-31T05:53:31;14.70;;;3.43;;
3911;SDS011;1971;51.778;10.330;2023-01-31T05:56:04;9.53;;;3.70;;
3911;SDS011;1971;51.778;10.330;2023-01-31T05:58:35;13.87;;;4.07;;
3911;SDS011;1971;51.778;10.330;2023-01-31T06:01:05;12.70;;;3.93;;
3911;SDS011;1971;51.778;10.330;2023-01-31T06:03:35;11.60;;;3.53;;
3911;SDS011;1971;51.778;10.330;2023-01-31T06:06:07;11.30;;;2.90;;
3911;SDS011;1971;51.778;10.330;2023-01-31T06:08:37;6.93;;;3.53;;
3911;SDS011;1971;51.778;10.330;2023-01-31T06:11:10;10.70;;;4.03;;
3911;SDS011;1971;51.778;10.330;2023-01-31T06:13:41;6.77;;;3.07;;
3911;SDS011;1971;51.778;10.330;2023-01-31T06:16:11;8.77;;;3.63;;
3911;SDS011;1971;51.778;10.330;2023-01-31T06:18:44;10.80;;;3.47;;
3911;SDS011;1971;51.778;10.330;2023-01-31T06:21:14;9.07;;;3.73;;
3911;SDS011;1971;51.778;10.330;2023-01-31T06:23:45;11.10;;;3.70;;
3911;SDS011;1971;51.778;10.330;2023-01-31T06:26:17;9.83;;;3.70;;
3911;SDS011;1971;51.778;10.330;2023-01-31T06:28:47;6.93;;;3.80;;
3911;SDS011;1971;51.778;10.330;2023-01-31T06:31:17;9.00;;;4.60;;
3911;SDS011;1971;51.778;10.330;2023-01-31T06:33:48;13.80;;;3.97;;
3911;SDS011;1971;51.778;10.330;2023-01-31T06:36:18;8.10;;;4.30;;
3911;SDS011;1971;51.778;10.330;2023-01-31T06:38:48;12.47;;;4.00;;
3911;SDS011;1971;51.778;10.330;2023-01-31T06:41:21;10.57;;;3.63;;
3911;SDS011;1971;51.778;10.330;2023-01-31T06:43:51;10.83;;;4.57;;
3911;SDS011;1971;51.778;10.330;2023-01-31T06:46:22;15.10;;;4.37;;
3911;SDS011;1971;51.778;10.330;2023-01-31T06:48:52;9.83;;;4.57;;
3911;SDS011;1971;51.778;10.330;2023-01-31T06:51:22;12.20;;;3.73;;
3911;SDS011;1971;51.778;10.330;2023-01-31T06:53:52;11.83;;;4.17;;
3911;SDS011;1971;51.778;10.330;2023-01-31T06:56:25;10.17;;;4.30;;
3911;SDS011;1971;51.778;10.330;2023-01-31T06:58:55;11.57;;;4.30;;
3911;SDS011;1971;51.778;10.330;2023-01-31T07:01:25;11.30;;;4.37;;
3911;SDS011;1971;51.778;10.330;2023-01-31T07:03:57;7.57;;;3.77;;
3911;SDS011;1971;51.778;10.330;2023-01-31T07:06:27;10.40;;;4.13;;
3911;SDS011;1971;51.778;10.330;2023-01-31T07:08:58;7.67;;;4.17;;
3911;SDS011;1971;51.778;10.330;2023-01-31T07:11:30;11.37;;;4.50;;
3911;SDS011;1971;51.778;10.330;2023-01-31T07:14:00;15.87;;;5.33;;
3911;SDS011;1971;51.778;10.330;2023-01-31T07:16:30;16.03;;;4.70;;
3911;SDS011;1971;51.778;10.330;2023-01-31T07:19:01;16.23;;;4.17;;
3911;SDS011;1971;51.778;10.330;2023-01-31T07:21:31;11.40;;;4.90;;
3911;SDS011;1971;51.778;10.330;2023-01-31T07:24:02;17.73;;;5.97;;
3911;SDS011;1971;51.778;10.330;2023-01-31T07:26:35;11.80;;;4.90;;
3911;SDS011;1971;51.778;10.330;2023-01-31T07:29:06;13.80;;;4.20;;
3911;SDS011;1971;51.778;10.330;2023-01-31T07:31:37;14.00;;;6.87;;
3911;SDS011;1971;51.778;10.330;2023-01-31T07:34:07;14.03;;;5.67;;
3911;SDS011;1971;51.778;10.330;2023-01-31T07:36:38;9.70;;;5.47;;
3911;SDS011;1971;51.778;10.330;2023-01-31T07:39:08;12.90;;;4.90;;
3911;SDS011;1971;51.778;10.330;2023-01-31T07:41:41;11.23;;;5.80;;
3911;SDS011;1971;51.778;10.330;2023-01-31T07:44:12;10.57;;;6.13;;
3911;SDS011;1971;51.778;10.330;2023-01-31T07:46:42;13.63;;;4.80;;
3911;SDS011;1971;51.778;10.330;2023-01-31T07:49:12;13.53;;;4.50;;
3911;SDS011;1971;51.778;10.330;2023-01-31T07:51:42;8.40;;;4.87;;
3911;SDS011;1971;51.778;10.330;2023-01-31T07:54:13;11.53;;;4.50;;
3911;SDS011;1971;51.778;10.330;2023-01-31T07:56:46;11.93;;;4.60;;
3911;SDS011;1971;51.778;10.330;2023-01-31T07:59:17;8.90;;;4.60;;
3911;SDS011;1971;51.778;10.330;2023-01-31T08:01:47;5.73;;;3.40;;
3911;SDS011;1971;51.778;10.330;2023-01-31T08:04:30;17.00;;;5.00;;
3911;SDS011;1971;51.778;10.330;2023-01-31T08:07:02;10.27;;;3.87;;
3911;SDS011;1971;51.778;10.330;2023-01-31T08:09:33;12.50;;;4.50;;
3911;SDS011;1971;51.778;10.330;2023-01-31T08:12:07;10.03;;;3.60;;
3911;SDS011;1971;51.778;10.330;2023-01-31T08:14:37;11.40;;;4.10;;
3911;SDS011;1971;51.778;10.330;2023-01-31T08:17:08;13.57;;;4.80;;
3911;SDS011;1971;51.778;10.330;2023-01-31T08:19:38;9.20;;;4.00;;
3911;SDS011;1971;51.778;10.330;2023-01-31T08:22:08;7.87;;;4.10;;
3911;SDS011;1971;51.778;10.330;2023-01-31T08:24:38;7.80;;;3.90;;
3911;SDS011;1971;51.778;10.330;2023-01-31T08:27:11;7.40;;;3.77;;
3911;SDS011;1971;51.778;10.330;2023-01-31T08:29:41;10.33;;;3.30;;
3911;SDS011;1971;51.778;10.330;2023-01-31T08:32:12;11.13;;;4.07;;
3911;SDS011;1971;51.778;10.330;2023-01-31T08:34:41;12.17;;;4.23;;
3911;SDS011;1971;51.778;10.330;2023-01-31T08:37:12;9.07;;;3.10;;
3911;SDS011;1971;51.778;10.330;2023-01-31T08:39:44;8.67;;;3.60;;
3911;SDS011;1971;51.778;10.330;2023-01-31T08:42:16;10.23;;;3.87;;
3911;SDS011;1971;51.778;10.330;2023-01-31T08:44:47;7.33;;;2.93;;
3911;SDS011;1971;51.778;10.330;2023-01-31T08:47:17;11.60;;;3.50;;
3911;SDS011;1971;51.778;10.330;2023-01-31T08:49:47;7.80;;;3.80;;
3911;SDS011;1971;51.778;10.330;2023-01-31T08:52:18;10.90;;;4.17;;
3911;SDS011;1971;51.778;10.330;2023-01-31T08:54:48;4.53;;;3.20;;
3911;SDS011;1971;51.778;10.330;2023-01-31T08:57:23;10.23;;;5.33;;
3911;SDS011;1971;51.778;10.330;2023-01-31T08:59:54;12.70;;;3.60;;
3911;SDS011;1971;51.778;10.330;2023-01-31T09:02:24;10.83;;;3.67;;
3911;SDS011;1971;51.778;10.330;2023-01-31T09:04:54;6.83;;;3.47;;
3911;SDS011;1971;51.778;10.330;2023-01-31T09:07:24;14.30;;;5.40;;
3911;SDS011;1971;51.778;10.330;2023-01-31T09:09:54;19.07;;;3.30;;
3911;SDS011;1971;51.778;10.330;2023-01-31T09:12:26;5.97;;;3.83;;
3911;SDS011;1971;51.778;10.330;2023-01-31T09:14:57;7.67;;;3.10;;
3911;SDS011;1971;51.778;10.330;2023-01-31T09:17:27;14.10;;;4.57;;
3911;SDS011;1971;51.778;10.330;2023-01-31T09:19:57;11.53;;;3.80;;
3911;SDS011;1971;51.778;10.330;2023-01-31T09:22:31;8.90;;;4.87;;
3911;SDS011;1971;51.778;10.330;2023-01-31T09:25:02;9.60;;;4.33;;
3911;SDS011;1971;51.778;10.330;2023-01-31T09:27:35;5.87;;;3.63;;
3911;SDS011;1971;51.778;10.330;2023-01-31T09:30:07;9.50;;;4.50;;
3911;SDS011;1971;51.778;10.330;2023-01-31T09:32:38;7.43;;;5.00;;
3911;SDS011;1971;51.778;10.330;2023-01-31T09:35:09;13.37;;;4.13;;
3911;SDS011;1971;51.778;10.330;2023-01-31T09:37:40;8.57;;;4.90;;
3911;SDS011;1971;51.778;10.330;2023-01-31T09:40:10;10.10;;;4.10;;
3911;SDS011;1971;51.778;10.330;2023-01-31T09:42:50;9.23;;;4.97;;
3911;SDS011;1971;51.778;10.330;2023-01-31T09:45:25;6.40;;;4.60;;
3911;SDS011;1971;51.778;10.330;2023-01-31T09:47:59;18.30;;;5.60;;
3911;SDS011;1971;51.778;10.330;2023-01-31T09:50:30;10.63;;;5.27;;
3911;SDS011;1971;51.778;10.330;2023-01-31T09:53:03;12.43;;;6.03;;
3911;SDS011;1971;51.778;10.330;2023-01-31T09:55:34;11.63;;;5.30;;
3911;SDS011;1971;51.778;10.330;2023-01-31T09:58:14;13.50;;;5.03;;
3911;SDS011;1971;51.778;10.330;2023-01-31T10:00:54;14.13;;;6.33;;
3911;SDS011;1971;51.778;10.330;2023-01-31T10:03:35;11.60;;;5.47;;
3911;SDS011;1971;51.778;10.330;2023-01-31T10:06:13;11.23;;;5.20;;
3911;SDS011;1971;51.778;10.330;2023-01-31T10:08:50;8.30;;;5.00;;
3911;SDS011;1971;51.778;10.330;2023-01-31T10:11:27;10.23;;;4.93;;
3911;SDS011;1971;51.778;10.330;2023-01-31T10:14:17;9.50;;;4.83;;
3911;SDS011;1971;51.778;10.330;2023-01-31T10:17:04;10.23;;;6.27;;
3911;SDS011;1971;51.778;10.330;2023-01-31T10:19:42;7.80;;;5.43;;
3911;SDS011;1971;51.778;10.330;2023-01-31T10:22:17;6.63;;;4.50;;
3911;SDS011;1971;51.778;10.330;2023-01-31T10:24:52;6.27;;;4.63;;
3911;SDS011;1971;51.778;10.330;2023-01-31T10:27:37;9.57;;;5.43;;
3911;SDS011;1971;51.778;10.330;2023-01-31T10:30:17;8.40;;;5.40;;
3911;SDS011;1971;51.778;10.330;2023-01-31T10:32:51;9.40;;;5.43;;
3911;SDS011;1971;51.778;10.330;2023-01-31T10:35:26;17.57;;;6.23;;
3911;SDS011;1971;51.778;10.330;2023-01-31T10:38:02;12.60;;;5.70;;
3911;SDS011;1971;51.778;10.330;2023-01-31T10:40:40;12.77;;;5.00;;
3911;SDS011;1971;51.778;10.330;2023-01-31T10:43:14;9.30;;;5.83;;
3911;SDS011;1971;51.778;10.330;2023-01-31T10:45:52;10.53;;;5.23;;
3911;SDS011;1971;51.778;10.330;2023-01-31T10:48:24;10.40;;;5.20;;
3911;SDS011;1971;51.778;10.330;2023-01-31T10:50:59;14.77;;;5.53;;
3911;SDS011;1971;51.778;10.330;2023-01-31T10:53:40;10.30;;;4.87;;
3911;SDS011;1971;51.778;10.330;2023-01-31T10:56:19;7.47;;;4.80;;
3911;SDS011;1971;51.778;10.330;2023-01-31T10:58:57;10.53;;;5.67;;
3911;SDS011;1971;51.778;10.330;2023-01-31T11:01:32;7.63;;;5.13;;
3911;SDS011;1971;51.778;10.330;2023-01-31T11:04:09;11.33;;;4.70;;
3911;SDS011;1971;51.778;10.330;2023-01-31T11:06:52;10.27;;;4.87;;
3911;SDS011;1971;51.778;10.330;2023-01-31T11:09:22;9.57;;;3.47;;
3911;SDS011;1971;51.778;10.330;2023-01-31T11:11:56;4.57;;;4.20;;
3911;SDS011;1971;51.778;10.330;2023-01-31T11:14:28;4.20;;;3.20;;
3911;SDS011;1971;51.778;10.330;2023-01-31T11:17:02;8.93;;;4.57;;
3911;SDS011;1971;51.778;10.330;2023-01-31T11:19:36;107.80;;;15.10;;
3911;SDS011;1971;51.778;10.330;2023-01-31T11:22:20;144.47;;;18.67;;
3911;SDS011;1971;51.778;10.330;2023-01-31T11:24:52;287.20;;;31.40;;
3911;SDS011;1971;51.778;10.330;2023-01-31T11:27:25;273.33;;;29.03;;
3911;SDS011;1971;51.778;10.330;2023-01-31T11:30:00;521.97;;;50.17;;
3911;SDS011;1971;51.778;10.330;2023-01-31T11:32:34;593.03;;;51.40;;
3911;SDS011;1971;51.778;10.330;2023-01-31T11:35:09;531.53;;;49.60;;
3911;SDS011;1971;51.778;10.330;2023-01-31T11:37:52;206.83;;;19.50;;
3911;SDS011;1971;51.778;10.330;2023-01-31T11:40:29;262.87;;;32.70;;
3911;SDS011;1971;51.778;10.330;2023-01-31T11:43:01;481.97;;;53.73;;
3911;SDS011;1971;51.778;10.330;2023-01-31T11:45:35;253.23;;;28.03;;
3911;SDS011;1971;51.778;10.330;2023-01-31T11:48:14;396.43;;;41.90;;
3911;SDS011;1971;51.778;10.330;2023-01-31T11:50:49;319.67;;;32.60;;
3911;SDS011;1971;51.778;10.330;2023-01-31T11:53:22;217.80;;;26.93;;
3911;SDS011;1971;51.778;10.330;2023-01-31T11:55:56;89.80;;;12.73;;
3911;SDS011;1971;51.778;10.330;2023-01-31T11:58:38;351.30;;;35.67;;
3911;SDS011;1971;51.778;10.330;2023-01-31T12:01:12;578.73;;;59.67;;
3911;SDS011;1971;51.778;10.330;2023-01-31T12:03:50;607.23;;;60.93;;
3911;SDS011;1971;51.778;10.330;2023-01-31T12:06:30;283.60;;;29.40;;
3911;SDS011;1971;51.778;10.330;2023-01-31T12:09:03;39.03;;;8.30;;
3911;SDS011;1971;51.778;10.330;2023-01-31T12:11:35;242.23;;;30.13;;
3911;SDS011;1971;51.778;10.330;2023-01-31T12:14:08;386.20;;;38.57;;
3911;SDS011;1971;51.778;10.330;2023-01-31T12:16:42;276.33;;;34.90;;
3911;SDS011;1971;51.778;10.330;2023-01-31T12:19:19;599.67;;;56.37;;
3911;SDS011;1971;51.778;10.330;2023-01-31T12:21:59;549.93;;;53.00;;
3911;SDS011;1971;51.778;10.330;2023-01-31T12:24:37;586.00;;;53.27;;
3911;SDS011;1971;51.778;10.330;2023-01-31T12:27:16;473.60;;;49.43;;
3911;SDS011;1971;51.778;10.330;2023-01-31T12:30:09;385.90;;;40.00;;
3911;SDS011;1971;51.778;10.330;2023-01-31T12:32:56;347.23;;;37.27;;
3911;SDS011;1971;51.778;10.330;2023-01-31T12:35:56;567.50;;;55.17;;
3911;SDS011;1971;51.778;10.330;2023-01-31T12:38:39;355.57;;;36.07;;
3911;SDS011;1971;51.778;10.330;2023-01-31T12:41:23;595.17;;;58.00;;
3911;SDS011;1971;51.778;10.330;2023-01-31T12:44:04;418.87;;;43.87;;
3911;SDS011;1971;51.778;10.330;2023-01-31T12:46:49;419.57;;;48.67;;
3911;SDS011;1971;51.778;10.330;2023-01-31T12:49:43;322.07;;;30.90;;
3911;SDS011;1971;51.778;10.330;2023-01-31T12:52:35;511.20;;;50.27;;
3911;SDS011;1971;51.778;10.330;2023-01-31T12:55:15;505.90;;;44.03;;
3911;SDS011;1971;51.778;10.330;2023-01-31T12:57:56;255.47;;;24.37;;
3911;SDS011;1971;51.778;10.330;2023-01-31T13:00:39;426.83;;;40.87;;
3911;SDS011;1971;51.778;10.330;2023-01-31T13:03:21;389.23;;;38.10;;
3911;SDS011;1971;51.778;10.330;2023-01-31T13:06:05;352.80;;;32.53;;
3911;SDS011;1971;51.778;10.330;2023-01-31T13:08:45;237.33;;;24.80;;
3911;SDS011;1971;51.778;10.330;2023-01-31T13:11:34;213.23;;;25.40;;
3911;SDS011;1971;51.778;10.330;2023-01-31T13:14:09;96.67;;;14.37;;
3911;SDS011;1971;51.778;10.330;2023-01-31T13:16:44;366.50;;;36.90;;
3911;SDS011;1971;51.778;10.330;2023-01-31T13:19:17;443.60;;;41.67;;
3911;SDS011;1971;51.778;10.330;2023-01-31T13:21:53;501.33;;;45.67;;
3911;SDS011;1971;51.778;10.330;2023-01-31T13:24:30;417.97;;;34.97;;
3911;SDS011;1971;51.778;10.330;2023-01-31T13:27:07;495.70;;;43.37;;
3911;SDS011;1971;51.778;10.330;2023-01-31T13:29:44;619.20;;;50.97;;
3911;SDS011;1971;51.778;10.330;2023-01-31T13:32:20;555.57;;;48.27;;
3911;SDS011;1971;51.778;10.330;2023-01-31T13:34:57;368.20;;;34.87;;
3911;SDS011;1971;51.778;10.330;2023-01-31T13:37:31;371.03;;;35.43;;
3911;SDS011;1971;51.778;10.330;2023-01-31T13:40:15;370.57;;;34.20;;
3911;SDS011;1971;51.778;10.330;2023-01-31T13:42:48;233.37;;;22.00;;
3911;SDS011;1971;51.778;10.330;2023-01-31T13:45:20;293.43;;;23.97;;
3911;SDS011;1971;51.778;10.330;2023-01-31T13:47:53;352.37;;;29.73;;
3911;SDS011;1971;51.778;10.330;2023-01-31T13:50:31;119.63;;;12.40;;
3911;SDS011;1971;51.778;10.330;2023-01-31T13:53:10;176.17;;;15.70;;
3911;SDS011;1971;51.778;10.330;2023-01-31T13:55:47;204.37;;;20.13;;
3911;SDS011;1971;51.778;10.330;2023-01-31T13:58:20;170.07;;;16.60;;
3911;SDS011;1971;51.778;10.330;2023-01-31T14:00:55;210.80;;;21.13;;
3911;SDS011;1971;51.778;10.330;2023-01-31T14:03:30;183.07;;;17.43;;
3911;SDS011;1971;51.778;10.330;2023-01-31T14:06:20;164.23;;;17.03;;
3911;SDS011;1971;51.778;10.330;2023-01-31T14:08:56;178.47;;;16.50;;
3911;SDS011;1971;51.778;10.330;2023-01-31T14:11:44;224.03;;;20.23;;
3911;SDS011;1971;51.778;10.330;2023-01-31T14:14:19;158.97;;;15.50;;
3911;SDS011;1971;51.778;10.330;2023-01-31T14:16:57;179.77;;;15.93;;
3911;SDS011;1971;51.778;10.330;2023-01-31T14:22:30;84.33;;;9.20;;
3911;SDS011;1971;51.778;10.330;2023-01-31T14:25:12;92.10;;;9.77;;
3911;SDS011;1971;51.778;10.330;2023-01-31T14:28:01;57.50;;;6.27;;
3911;SDS011;1971;51.778;10.330;2023-01-31T14:30:34;90.90;;;9.30;;
3911;SDS011;1971;51.778;10.330;2023-01-31T14:36:06;128.73;;;13.67;;
3911;SDS011;1971;51.778;10.330;2023-01-31T14:41:54;59.30;;;6.30;;
3911;SDS011;1971;51.778;10.330;2023-01-31T14:44:59;53.80;;;5.37;;
3911;SDS011;1971;51.778;10.330;2023-01-31T14:47:45;180.97;;;16.37;;
3911;SDS011;1971;51.778;10.330;2023-01-31T14:50:31;202.17;;;16.47;;
3911;SDS011;1971;51.778;10.330;2023-01-31T14:53:16;165.20;;;15.37;;
3911;SDS011;1971;51.778;10.330;2023-01-31T14:56:05;210.20;;;18.30;;
3911;SDS011;1971;51.778;10.330;2023-01-31T14:58:47;158.87;;;15.30;;
3911;SDS011;1971;51.778;10.330;2023-01-31T15:01:21;103.03;;;10.30;;
3911;SDS011;1971;51.778;10.330;2023-01-31T15:04:01;238.67;;;20.60;;
3911;SDS011;1971;51.778;10.330;2023-01-31T15:06:33;197.23;;;16.77;;
3911;SDS011;1971;51.778;10.330;2023-01-31T15:09:16;234.07;;;16.87;;
3911;SDS011;1971;51.778;10.330;2023-01-31T15:12:03;212.73;;;17.00;;
3911;SDS011;1971;51.778;10.330;2023-01-31T15:14:54;273.03;;;22.10;;
3911;SDS011;1971;51.778;10.330;2023-01-31T15:17:28;325.43;;;23.73;;
3911;SDS011;1971;51.778;10.330;2023-01-31T15:20:12;382.67;;;29.10;;
3911;SDS011;1971;51.778;10.330;2023-01-31T15:22:45;443.27;;;39.03;;
3911;SDS011;1971;51.778;10.330;2023-01-31T15:25:27;460.30;;;32.37;;
3911;SDS011;1971;51.778;10.330;2023-01-31T15:28:02;513.83;;;42.07;;
3911;SDS011;1971;51.778;10.330;2023-01-31T15:30:32;769.70;;;59.03;;
3911;SDS011;1971;51.778;10.330;2023-01-31T15:33:11;491.07;;;29.67;;
3911;SDS011;1971;51.778;10.330;2023-01-31T15:35:45;844.13;;;57.93;;
3911;SDS011;1971;51.778;10.330;2023-01-31T15:38:23;616.20;;;46.37;;
3911;SDS011;1971;51.778;10.330;2023-01-31T15:41:04;633.37;;;47.60;;
3911;SDS011;1971;51.778;10.330;2023-01-31T15:43:35;431.53;;;39.03;;
3911;SDS011;1971;51.778;10.330;2023-01-31T15:46:11;286.37;;;24.03;;
3911;SDS011;1971;51.778;10.330;2023-01-31T15:48:45;197.17;;;19.57;;